sensor_id;sensor_type;location;lat;lon;timestamp;temperature;humidity
72710;SHT30;60827;48.398;-4.498;2022-09-09T00:01:12;17.98;81.15
72710;SHT30;60827;48.398;-4.498;2022-09-09T00:03:45;17.96;81.09
72710;SHT30;60827;48.398;-4.498;2022-09-09T00:06:28;17.93;81.30
72710;SHT30;60827;48.398;-4.498;2022-09-09T00:09:12;17.95;81.24
72710;SHT30;60827;48.398;-4.498;2022-09-09T00:14:56;17.95;81.30
72710;SHT30;60827;48.398;-4.498;2022-09-09T00:17:36;17.95;81.24
72710;SHT30;60827;48.398;-4.498;2022-09-09T00:26:09;17.89;81.31
72710;SHT30;60827;48.398;-4.498;2022-09-09T00:28:52;17.88;81.31
72710;SHT30;60827;48.398;-4.498;2022-09-09T00:31:27;17.89;81.15
72710;SHT30;60827;48.398;-4.498;2022-09-09T00:33:53;17.88;81.10
72710;SHT30;60827;48.398;-4.498;2022-09-09T00:36:22;17.86;81.19
72710;SHT30;60827;48.398;-4.498;2022-09-09T00:38:57;17.91;81.10
72710;SHT30;60827;48.398;-4.498;2022-09-09T00:49:42;17.89;81.10
72710;SHT30;60827;48.398;-4.498;2022-09-09T00:52:39;17.91;81.15
72710;SHT30;60827;48.398;-4.498;2022-09-09T00:55:07;17.91;81.03
72710;SHT30;60827;48.398;-4.498;2022-09-09T00:57:35;17.95;81.07
72710;SHT30;60827;48.398;-4.498;2022-09-09T01:00:23;17.96;81.02
72710;SHT30;60827;48.398;-4.498;2022-09-09T01:03:03;17.99;80.79
72710;SHT30;60827;48.398;-4.498;2022-09-09T01:08:00;18.03;80.66
72710;SHT30;60827;48.398;-4.498;2022-09-09T01:10:41;18.05;80.58
72710;SHT30;60827;48.398;-4.498;2022-09-09T01:13:25;18.03;80.59
72710;SHT30;60827;48.398;-4.498;2022-09-09T01:15:53;18.02;80.56
72710;SHT30;60827;48.398;-4.498;2022-09-09T01:18:21;18.02;80.51
72710;SHT30;60827;48.398;-4.498;2022-09-09T01:20:55;17.99;80.40
72710;SHT30;60827;48.398;-4.498;2022-09-09T01:26:32;17.99;80.13
72710;SHT30;60827;48.398;-4.498;2022-09-09T01:28:59;17.99;80.05
72710;SHT30;60827;48.398;-4.498;2022-09-09T01:31:54;17.95;80.02
72710;SHT30;60827;48.398;-4.498;2022-09-09T01:34:21;17.98;79.85
72710;SHT30;60827;48.398;-4.498;2022-09-09T01:36:57;17.95;79.93
72710;SHT30;60827;48.398;-4.498;2022-09-09T01:39:23;17.93;79.97
72710;SHT30;60827;48.398;-4.498;2022-09-09T01:41:48;17.96;79.89
72710;SHT30;60827;48.398;-4.498;2022-09-09T01:44:14;17.92;79.93
72710;SHT30;60827;48.398;-4.498;2022-09-09T01:46:40;17.96;79.84
72710;SHT30;60827;48.398;-4.498;2022-09-09T01:49:06;17.93;79.93
72710;SHT30;60827;48.398;-4.498;2022-09-09T01:51:34;17.96;80.02
72710;SHT30;60827;48.398;-4.498;2022-09-09T01:54:01;17.96;80.14
72710;SHT30;60827;48.398;-4.498;2022-09-09T01:59:42;17.92;80.52
72710;SHT30;60827;48.398;-4.498;2022-09-09T02:02:14;17.93;80.36
72710;SHT30;60827;48.398;-4.498;2022-09-09T02:04:45;17.91;80.40
72710;SHT30;60827;48.398;-4.498;2022-09-09T02:10:11;17.95;80.26
72710;SHT30;60827;48.398;-4.498;2022-09-09T02:12:45;17.91;80.20
72710;SHT30;60827;48.398;-4.498;2022-09-09T02:15:23;17.92;80.12
72710;SHT30;60827;48.398;-4.498;2022-09-09T02:17:50;17.93;80.07
72710;SHT30;60827;48.398;-4.498;2022-09-09T02:20:19;17.93;79.94
72710;SHT30;60827;48.398;-4.498;2022-09-09T02:22:49;17.92;79.91
72710;SHT30;60827;48.398;-4.498;2022-09-09T02:25:18;17.93;79.87
72710;SHT30;60827;48.398;-4.498;2022-09-09T02:27:45;17.93;79.85
72710;SHT30;60827;48.398;-4.498;2022-09-09T02:30:12;17.92;79.83
72710;SHT30;60827;48.398;-4.498;2022-09-09T02:32:41;17.89;79.78
72710;SHT30;60827;48.398;-4.498;2022-09-09T02:35:13;17.88;79.79
72710;SHT30;60827;48.398;-4.498;2022-09-09T02:37:42;17.91;79.72
72710;SHT30;60827;48.398;-4.498;2022-09-09T02:40:10;17.89;79.66
72710;SHT30;60827;48.398;-4.498;2022-09-09T02:42:40;17.88;79.62
72710;SHT30;60827;48.398;-4.498;2022-09-09T02:45:08;17.89;79.57
72710;SHT30;60827;48.398;-4.498;2022-09-09T02:47:34;17.88;79.53
72710;SHT30;60827;48.398;-4.498;2022-09-09T02:50:15;17.89;79.53
72710;SHT30;60827;48.398;-4.498;2022-09-09T02:55:41;17.86;79.56
72710;SHT30;60827;48.398;-4.498;2022-09-09T02:58:10;17.85;79.62
72710;SHT30;60827;48.398;-4.498;2022-09-09T03:00:37;17.88;79.55
72710;SHT30;60827;48.398;-4.498;2022-09-09T03:03:04;17.86;79.54
72710;SHT30;60827;48.398;-4.498;2022-09-09T03:05:29;17.89;79.55
72710;SHT30;60827;48.398;-4.498;2022-09-09T03:07:55;17.92;79.58
72710;SHT30;60827;48.398;-4.498;2022-09-09T03:10:20;17.89;79.49
72710;SHT30;60827;48.398;-4.498;2022-09-09T03:12:46;17.91;79.51
72710;SHT30;60827;48.398;-4.498;2022-09-09T03:15:11;17.91;79.44
72710;SHT30;60827;48.398;-4.498;2022-09-09T03:17:36;17.93;79.36
72710;SHT30;60827;48.398;-4.498;2022-09-09T03:20:03;17.91;79.10
72710;SHT30;60827;48.398;-4.498;2022-09-09T03:22:29;17.92;79.04
72710;SHT30;60827;48.398;-4.498;2022-09-09T03:24:54;17.91;78.84
72710;SHT30;60827;48.398;-4.498;2022-09-09T03:27:20;17.95;78.78
72710;SHT30;60827;48.398;-4.498;2022-09-09T03:29:46;17.96;78.58
72710;SHT30;60827;48.398;-4.498;2022-09-09T03:32:12;17.93;78.43
72710;SHT30;60827;48.398;-4.498;2022-09-09T03:34:37;17.93;78.32
72710;SHT30;60827;48.398;-4.498;2022-09-09T03:37:05;17.91;78.28
72710;SHT30;60827;48.398;-4.498;2022-09-09T03:39:31;17.93;78.24
72710;SHT30;60827;48.398;-4.498;2022-09-09T03:41:56;17.93;78.17
72710;SHT30;60827;48.398;-4.498;2022-09-09T03:44:22;17.95;78.17
72710;SHT30;60827;48.398;-4.498;2022-09-09T03:46:47;17.93;78.07
72710;SHT30;60827;48.398;-4.498;2022-09-09T03:49:15;17.91;78.11
72710;SHT30;60827;48.398;-4.498;2022-09-09T03:51:42;17.92;78.06
72710;SHT30;60827;48.398;-4.498;2022-09-09T03:54:07;17.93;78.11
72710;SHT30;60827;48.398;-4.498;2022-09-09T03:56:35;17.91;78.06
72710;SHT30;60827;48.398;-4.498;2022-09-09T03:59:02;17.95;78.11
72710;SHT30;60827;48.398;-4.498;2022-09-09T04:01:28;17.89;78.15
72710;SHT30;60827;48.398;-4.498;2022-09-09T04:03:53;17.92;78.18
72710;SHT30;60827;48.398;-4.498;2022-09-09T04:06:21;17.91;78.27
72710;SHT30;60827;48.398;-4.498;2022-09-09T04:08:46;17.89;78.31
72710;SHT30;60827;48.398;-4.498;2022-09-09T04:11:14;17.86;78.28
72710;SHT30;60827;48.398;-4.498;2022-09-09T04:13:40;17.88;78.33
72710;SHT30;60827;48.398;-4.498;2022-09-09T04:16:07;17.88;78.34
72710;SHT30;60827;48.398;-4.498;2022-09-09T04:18:34;17.85;78.34
72710;SHT30;60827;48.398;-4.498;2022-09-09T04:20:59;17.84;78.37
72710;SHT30;60827;48.398;-4.498;2022-09-09T04:23:27;17.84;78.33
72710;SHT30;60827;48.398;-4.498;2022-09-09T04:25:56;17.85;78.31
72710;SHT30;60827;48.398;-4.498;2022-09-09T04:28:25;17.84;78.22
72710;SHT30;60827;48.398;-4.498;2022-09-09T04:30:51;17.86;78.17
72710;SHT30;60827;48.398;-4.498;2022-09-09T04:33:17;17.84;78.19
72710;SHT30;60827;48.398;-4.498;2022-09-09T04:35:48;17.85;78.19
72710;SHT30;60827;48.398;-4.498;2022-09-09T04:38:18;17.84;78.25
72710;SHT30;60827;48.398;-4.498;2022-09-09T04:40:47;17.85;78.17
72710;SHT30;60827;48.398;-4.498;2022-09-09T04:43:13;17.85;78.14
72710;SHT30;60827;48.398;-4.498;2022-09-09T04:45:39;17.88;78.10
72710;SHT30;60827;48.398;-4.498;2022-09-09T04:48:08;17.91;78.01
72710;SHT30;60827;48.398;-4.498;2022-09-09T04:50:35;17.88;78.07
72710;SHT30;60827;48.398;-4.498;2022-09-09T04:53:01;17.89;78.07
72710;SHT30;60827;48.398;-4.498;2022-09-09T04:55:27;17.91;78.13
72710;SHT30;60827;48.398;-4.498;2022-09-09T04:57:52;17.92;78.14
72710;SHT30;60827;48.398;-4.498;2022-09-09T05:00:18;17.91;78.18
72710;SHT30;60827;48.398;-4.498;2022-09-09T05:02:44;17.89;78.24
72710;SHT30;60827;48.398;-4.498;2022-09-09T05:05:09;17.89;78.28
72710;SHT30;60827;48.398;-4.498;2022-09-09T05:07:36;17.91;78.29
72710;SHT30;60827;48.398;-4.498;2022-09-09T05:10:02;17.89;78.42
72710;SHT30;60827;48.398;-4.498;2022-09-09T05:12:30;17.86;78.46
72710;SHT30;60827;48.398;-4.498;2022-09-09T05:14:56;17.88;78.52
72710;SHT30;60827;48.398;-4.498;2022-09-09T05:17:22;17.88;78.55
72710;SHT30;60827;48.398;-4.498;2022-09-09T05:19:47;17.88;78.63
72710;SHT30;60827;48.398;-4.498;2022-09-09T05:22:13;17.91;78.68
72710;SHT30;60827;48.398;-4.498;2022-09-09T05:24:45;17.88;78.66
72710;SHT30;60827;48.398;-4.498;2022-09-09T05:27:11;17.91;78.59
72710;SHT30;60827;48.398;-4.498;2022-09-09T05:29:37;17.96;78.61
72710;SHT30;60827;48.398;-4.498;2022-09-09T05:32:04;17.99;78.61
72710;SHT30;60827;48.398;-4.498;2022-09-09T05:34:29;17.98;78.63
72710;SHT30;60827;48.398;-4.498;2022-09-09T05:36:55;18.03;78.61
72710;SHT30;60827;48.398;-4.498;2022-09-09T05:39:20;18.02;78.65
72710;SHT30;60827;48.398;-4.498;2022-09-09T05:41:46;18.06;78.65
72710;SHT30;60827;48.398;-4.498;2022-09-09T05:44:11;18.08;78.55
72710;SHT30;60827;48.398;-4.498;2022-09-09T05:46:36;18.15;78.51
72710;SHT30;60827;48.398;-4.498;2022-09-09T05:49:03;18.17;78.45
72710;SHT30;60827;48.398;-4.498;2022-09-09T05:51:31;18.19;78.46
72710;SHT30;60827;48.398;-4.498;2022-09-09T05:53:57;18.19;78.42
72710;SHT30;60827;48.398;-4.498;2022-09-09T05:56:27;18.19;78.41
72710;SHT30;60827;48.398;-4.498;2022-09-09T05:58:54;18.25;78.30
72710;SHT30;60827;48.398;-4.498;2022-09-09T06:01:31;18.30;78.33
72710;SHT30;60827;48.398;-4.498;2022-09-09T06:03:57;18.33;78.19
72710;SHT30;60827;48.398;-4.498;2022-09-09T06:06:30;18.34;78.26
72710;SHT30;60827;48.398;-4.498;2022-09-09T06:08:56;18.40;78.29
72710;SHT30;60827;48.398;-4.498;2022-09-09T06:11:28;18.47;78.22
72710;SHT30;60827;48.398;-4.498;2022-09-09T06:13:56;18.47;78.08
72710;SHT30;60827;48.398;-4.498;2022-09-09T06:16:24;18.53;78.12
72710;SHT30;60827;48.398;-4.498;2022-09-09T06:18:51;18.59;77.96
72710;SHT30;60827;48.398;-4.498;2022-09-09T06:21:26;18.64;77.77
72710;SHT30;60827;48.398;-4.498;2022-09-09T06:23:52;18.73;77.56
72710;SHT30;60827;48.398;-4.498;2022-09-09T06:26:38;18.83;77.22
72710;SHT30;60827;48.398;-4.498;2022-09-09T06:29:05;18.91;77.04
72710;SHT30;60827;48.398;-4.498;2022-09-09T06:31:34;18.98;76.87
72710;SHT30;60827;48.398;-4.498;2022-09-09T06:34:00;19.03;76.59
72710;SHT30;60827;48.398;-4.498;2022-09-09T06:36:37;19.05;76.33
72710;SHT30;60827;48.398;-4.498;2022-09-09T06:39:04;19.10;76.19
72710;SHT30;60827;48.398;-4.498;2022-09-09T06:41:31;19.18;76.01
72710;SHT30;60827;48.398;-4.498;2022-09-09T06:43:57;19.19;75.69
72710;SHT30;60827;48.398;-4.498;2022-09-09T06:46:27;19.29;75.61
72710;SHT30;60827;48.398;-4.498;2022-09-09T06:48:53;19.34;75.52
72710;SHT30;60827;48.398;-4.498;2022-09-09T06:51:22;19.38;75.50
72710;SHT30;60827;48.398;-4.498;2022-09-09T06:53:51;19.46;75.26
72710;SHT30;60827;48.398;-4.498;2022-09-09T06:58:42;19.49;74.98
72710;SHT30;60827;48.398;-4.498;2022-09-09T07:01:15;19.51;74.96
72710;SHT30;60827;48.398;-4.498;2022-09-09T07:03:49;19.56;74.88
72710;SHT30;60827;48.398;-4.498;2022-09-09T07:06:38;19.58;74.89
72710;SHT30;60827;48.398;-4.498;2022-09-09T07:09:07;19.65;74.86
72710;SHT30;60827;48.398;-4.498;2022-09-09T07:11:41;19.73;74.66
72710;SHT30;60827;48.398;-4.498;2022-09-09T07:14:07;19.72;74.63
72710;SHT30;60827;48.398;-4.498;2022-09-09T07:16:33;19.73;74.55
72710;SHT30;60827;48.398;-4.498;2022-09-09T07:19:03;19.77;74.49
72710;SHT30;60827;48.398;-4.498;2022-09-09T07:21:31;19.80;74.45
72710;SHT30;60827;48.398;-4.498;2022-09-09T07:23:57;19.80;74.27
72710;SHT30;60827;48.398;-4.498;2022-09-09T07:26:25;19.85;74.10
72710;SHT30;60827;48.398;-4.498;2022-09-09T07:28:51;19.89;73.90
72710;SHT30;60827;48.398;-4.498;2022-09-09T07:31:25;19.93;73.85
72710;SHT30;60827;48.398;-4.498;2022-09-09T07:33:51;19.97;73.62
72710;SHT30;60827;48.398;-4.498;2022-09-09T07:36:22;20.01;73.47
72710;SHT30;60827;48.398;-4.498;2022-09-09T07:38:51;20.03;73.42
72710;SHT30;60827;48.398;-4.498;2022-09-09T07:41:22;20.07;73.23
72710;SHT30;60827;48.398;-4.498;2022-09-09T07:43:49;20.16;73.23
72710;SHT30;60827;48.398;-4.498;2022-09-09T07:46:18;20.24;73.14
72710;SHT30;60827;48.398;-4.498;2022-09-09T07:48:48;20.27;73.02
72710;SHT30;60827;48.398;-4.498;2022-09-09T07:51:20;20.30;72.94
72710;SHT30;60827;48.398;-4.498;2022-09-09T07:53:50;20.33;72.92
72710;SHT30;60827;48.398;-4.498;2022-09-09T07:56:17;20.34;72.69
72710;SHT30;60827;48.398;-4.498;2022-09-09T07:58:45;20.34;72.65
72710;SHT30;60827;48.398;-4.498;2022-09-09T08:01:18;20.41;72.49
72710;SHT30;60827;48.398;-4.498;2022-09-09T08:06:23;20.58;72.25
72710;SHT30;60827;48.398;-4.498;2022-09-09T08:08:50;20.65;71.90
72710;SHT30;60827;48.398;-4.498;2022-09-09T08:11:16;20.64;71.44
72710;SHT30;60827;48.398;-4.498;2022-09-09T08:13:43;20.65;71.52
72710;SHT30;60827;48.398;-4.498;2022-09-09T08:16:14;20.71;71.51
72710;SHT30;60827;48.398;-4.498;2022-09-09T08:18:39;20.76;71.33
72710;SHT30;60827;48.398;-4.498;2022-09-09T08:21:07;20.79;71.01
72710;SHT30;60827;48.398;-4.498;2022-09-09T08:23:33;20.79;71.09
72710;SHT30;60827;48.398;-4.498;2022-09-09T08:26:06;20.78;71.02
72710;SHT30;60827;48.398;-4.498;2022-09-09T08:28:34;20.75;70.97
72710;SHT30;60827;48.398;-4.498;2022-09-09T08:31:11;20.67;71.00
72710;SHT30;60827;48.398;-4.498;2022-09-09T08:33:37;20.64;71.26
72710;SHT30;60827;48.398;-4.498;2022-09-09T08:36:05;20.59;71.23
72710;SHT30;60827;48.398;-4.498;2022-09-09T08:44:22;20.89;71.00
72710;SHT30;60827;48.398;-4.498;2022-09-09T08:46:58;20.99;71.12
72710;SHT30;60827;48.398;-4.498;2022-09-09T08:50:05;21.07;70.87
72710;SHT30;60827;48.398;-4.498;2022-09-09T08:52:43;21.19;70.38
72710;SHT30;60827;48.398;-4.498;2022-09-09T08:58:16;21.35;69.69
72710;SHT30;60827;48.398;-4.498;2022-09-09T09:06:54;21.19;68.97
72710;SHT30;60827;48.398;-4.498;2022-09-09T09:09:52;21.13;68.53
72710;SHT30;60827;48.398;-4.498;2022-09-09T09:12:26;21.10;69.06
72710;SHT30;60827;48.398;-4.498;2022-09-09T09:14:55;21.09;69.34
72710;SHT30;60827;48.398;-4.498;2022-09-09T09:17:27;21.07;69.70
72710;SHT30;60827;48.398;-4.498;2022-09-09T09:19:57;21.06;70.01
72710;SHT30;60827;48.398;-4.498;2022-09-09T09:22:50;21.02;70.25
72710;SHT30;60827;48.398;-4.498;2022-09-09T09:25:34;21.02;69.89
72710;SHT30;60827;48.398;-4.498;2022-09-09T09:28:10;20.99;69.87
72710;SHT30;60827;48.398;-4.498;2022-09-09T09:30:44;21.03;70.05
72710;SHT30;60827;48.398;-4.498;2022-09-09T09:35:52;21.07;69.71
72710;SHT30;60827;48.398;-4.498;2022-09-09T09:38:21;21.13;69.60
72710;SHT30;60827;48.398;-4.498;2022-09-09T09:40:55;21.23;69.74
72710;SHT30;60827;48.398;-4.498;2022-09-09T09:43:33;21.23;69.15
72710;SHT30;60827;48.398;-4.498;2022-09-09T09:45:59;21.23;69.46
72710;SHT30;60827;48.398;-4.498;2022-09-09T09:48:26;21.23;69.68
72710;SHT30;60827;48.398;-4.498;2022-09-09T09:50:55;21.25;69.68
72710;SHT30;60827;48.398;-4.498;2022-09-09T09:53:30;21.30;69.61
72710;SHT30;60827;48.398;-4.498;2022-09-09T09:58:31;21.43;69.16
72710;SHT30;60827;48.398;-4.498;2022-09-09T10:01:00;21.51;68.57
72710;SHT30;60827;48.398;-4.498;2022-09-09T10:03:31;21.53;68.34
72710;SHT30;60827;48.398;-4.498;2022-09-09T10:05:57;21.51;67.77
72710;SHT30;60827;48.398;-4.498;2022-09-09T10:08:24;21.43;67.31
72710;SHT30;60827;48.398;-4.498;2022-09-09T10:13:57;21.43;66.63
72710;SHT30;60827;48.398;-4.498;2022-09-09T10:19:15;21.40;66.20
72710;SHT30;60827;48.398;-4.498;2022-09-09T10:22:12;21.42;66.75
72710;SHT30;60827;48.398;-4.498;2022-09-09T10:25:10;21.57;67.24
72710;SHT30;60827;48.398;-4.498;2022-09-09T10:27:49;21.54;66.47
72710;SHT30;60827;48.398;-4.498;2022-09-09T10:30:24;21.60;66.53
72710;SHT30;60827;48.398;-4.498;2022-09-09T10:33:01;21.63;65.61
72710;SHT30;60827;48.398;-4.498;2022-09-09T10:35:45;21.66;65.39
72710;SHT30;60827;48.398;-4.498;2022-09-09T10:38:12;21.76;65.39
72710;SHT30;60827;48.398;-4.498;2022-09-09T10:40:50;21.84;65.08
72710;SHT30;60827;48.398;-4.498;2022-09-09T10:43:39;21.83;64.96
72710;SHT30;60827;48.398;-4.498;2022-09-09T10:46:36;21.66;67.48
72710;SHT30;60827;48.398;-4.498;2022-09-09T10:56:54;21.33;68.83
72710;SHT30;60827;48.398;-4.498;2022-09-09T10:59:36;21.29;68.73
72710;SHT30;60827;48.398;-4.498;2022-09-09T11:02:22;21.19;68.84
72710;SHT30;60827;48.398;-4.498;2022-09-09T11:04:59;21.22;69.05
72710;SHT30;60827;48.398;-4.498;2022-09-09T11:07:54;21.35;69.45
72710;SHT30;60827;48.398;-4.498;2022-09-09T11:12:54;21.15;68.01
72710;SHT30;60827;48.398;-4.498;2022-09-09T11:15:31;21.09;67.67
72710;SHT30;60827;48.398;-4.498;2022-09-09T11:18:01;21.00;67.85
72710;SHT30;60827;48.398;-4.498;2022-09-09T11:20:29;21.02;68.28
72710;SHT30;60827;48.398;-4.498;2022-09-09T11:23:09;21.03;68.00
72710;SHT30;60827;48.398;-4.498;2022-09-09T11:25:42;21.02;68.35
72710;SHT30;60827;48.398;-4.498;2022-09-09T11:42:21;21.27;68.27
72710;SHT30;60827;48.398;-4.498;2022-09-09T11:44:47;21.35;67.26
72710;SHT30;60827;48.398;-4.498;2022-09-09T11:49:51;21.50;67.15
72710;SHT30;60827;48.398;-4.498;2022-09-09T11:52:35;21.53;66.29
72710;SHT30;60827;48.398;-4.498;2022-09-09T11:57:38;21.57;64.84
72710;SHT30;60827;48.398;-4.498;2022-09-09T12:00:05;21.57;65.27
72710;SHT30;60827;48.398;-4.498;2022-09-09T12:02:31;21.53;64.64
72710;SHT30;60827;48.398;-4.498;2022-09-09T12:05:08;21.54;64.45
72710;SHT30;60827;48.398;-4.498;2022-09-09T12:12:35;21.66;63.82
72710;SHT30;60827;48.398;-4.498;2022-09-09T12:17:42;21.88;62.63
72710;SHT30;60827;48.398;-4.498;2022-09-09T12:20:23;21.94;62.31
72710;SHT30;60827;48.398;-4.498;2022-09-09T12:25:35;22.08;62.36
72710;SHT30;60827;48.398;-4.498;2022-09-09T12:31:08;22.19;62.97
72710;SHT30;60827;48.398;-4.498;2022-09-09T12:33:37;22.34;62.74
72710;SHT30;60827;48.398;-4.498;2022-09-09T12:36:09;22.36;61.83
72710;SHT30;60827;48.398;-4.498;2022-09-09T12:38:40;22.39;61.81
72710;SHT30;60827;48.398;-4.498;2022-09-09T12:41:06;22.52;63.17
72710;SHT30;60827;48.398;-4.498;2022-09-09T12:43:31;22.62;62.05
72710;SHT30;60827;48.398;-4.498;2022-09-09T12:46:01;22.65;61.08
72710;SHT30;60827;48.398;-4.498;2022-09-09T12:48:34;22.73;60.87
72710;SHT30;60827;48.398;-4.498;2022-09-09T12:51:02;22.72;60.40
72710;SHT30;60827;48.398;-4.498;2022-09-09T12:53:35;22.73;60.03
72710;SHT30;60827;48.398;-4.498;2022-09-09T12:56:06;22.75;60.02
72710;SHT30;60827;48.398;-4.498;2022-09-09T12:58:38;22.79;59.43
72710;SHT30;60827;48.398;-4.498;2022-09-09T13:01:06;22.76;60.11
72710;SHT30;60827;48.398;-4.498;2022-09-09T13:03:33;22.73;59.79
72710;SHT30;60827;48.398;-4.498;2022-09-09T13:06:11;22.85;60.44
72710;SHT30;60827;48.398;-4.498;2022-09-09T13:08:37;22.95;59.21
72710;SHT30;60827;48.398;-4.498;2022-09-09T13:11:07;23.10;60.10
72710;SHT30;60827;48.398;-4.498;2022-09-09T13:13:37;23.27;59.50
72710;SHT30;60827;48.398;-4.498;2022-09-09T13:16:05;23.36;58.68
72710;SHT30;60827;48.398;-4.498;2022-09-09T13:18:35;23.53;58.51
72710;SHT30;60827;48.398;-4.498;2022-09-09T13:21:01;23.57;57.67
72710;SHT30;60827;48.398;-4.498;2022-09-09T13:23:29;23.57;56.70
72710;SHT30;60827;48.398;-4.498;2022-09-09T13:26:00;23.57;56.66
72710;SHT30;60827;48.398;-4.498;2022-09-09T13:28:30;23.61;56.56
72710;SHT30;60827;48.398;-4.498;2022-09-09T13:33:31;23.94;56.93
72710;SHT30;60827;48.398;-4.498;2022-09-09T13:36:07;24.02;56.12
72710;SHT30;60827;48.398;-4.498;2022-09-09T13:41:22;24.33;55.38
72710;SHT30;60827;48.398;-4.498;2022-09-09T13:43:49;24.40;55.12
72710;SHT30;60827;48.398;-4.498;2022-09-09T13:46:39;24.36;54.96
72710;SHT30;60827;48.398;-4.498;2022-09-09T13:51:42;24.35;56.02
72710;SHT30;60827;48.398;-4.498;2022-09-09T13:54:10;24.39;55.28
72710;SHT30;60827;48.398;-4.498;2022-09-09T13:56:37;24.33;54.75
72710;SHT30;60827;48.398;-4.498;2022-09-09T13:59:05;24.39;55.14
72710;SHT30;60827;48.398;-4.498;2022-09-09T14:01:30;24.36;55.05
72710;SHT30;60827;48.398;-4.498;2022-09-09T14:03:56;24.39;55.16
72710;SHT30;60827;48.398;-4.498;2022-09-09T14:06:22;24.30;54.55
72710;SHT30;60827;48.398;-4.498;2022-09-09T14:08:51;24.27;55.61
72710;SHT30;60827;48.398;-4.498;2022-09-09T14:11:17;24.53;55.73
72710;SHT30;60827;48.398;-4.498;2022-09-09T14:13:43;24.63;54.65
72710;SHT30;60827;48.398;-4.498;2022-09-09T14:16:08;24.63;54.82
72710;SHT30;60827;48.398;-4.498;2022-09-09T14:18:35;24.56;55.01
72710;SHT30;60827;48.398;-4.498;2022-09-09T14:21:00;24.40;55.13
72710;SHT30;60827;48.398;-4.498;2022-09-09T14:23:28;24.36;55.47
72710;SHT30;60827;48.398;-4.498;2022-09-09T14:25:55;24.41;55.46
72710;SHT30;60827;48.398;-4.498;2022-09-09T14:28:20;24.46;55.49
72710;SHT30;60827;48.398;-4.498;2022-09-09T14:30:46;24.39;55.42
72710;SHT30;60827;48.398;-4.498;2022-09-09T14:33:14;24.26;55.43
72710;SHT30;60827;48.398;-4.498;2022-09-09T14:35:40;24.16;55.24
72710;SHT30;60827;48.398;-4.498;2022-09-09T14:38:07;24.17;55.85
72710;SHT30;60827;48.398;-4.498;2022-09-09T14:40:34;24.20;55.76
72710;SHT30;60827;48.398;-4.498;2022-09-09T14:43:00;24.27;55.41
72710;SHT30;60827;48.398;-4.498;2022-09-09T14:45:25;24.20;55.49
72710;SHT30;60827;48.398;-4.498;2022-09-09T14:47:51;24.20;55.52
72710;SHT30;60827;48.398;-4.498;2022-09-09T14:50:18;24.17;55.63
72710;SHT30;60827;48.398;-4.498;2022-09-09T14:52:44;24.17;55.66
72710;SHT30;60827;48.398;-4.498;2022-09-09T14:55:09;24.36;55.85
72710;SHT30;60827;48.398;-4.498;2022-09-09T14:57:35;24.66;55.82
72710;SHT30;60827;48.398;-4.498;2022-09-09T15:00:02;24.77;55.25
72710;SHT30;60827;48.398;-4.498;2022-09-09T15:02:28;24.76;55.31
72710;SHT30;60827;48.398;-4.498;2022-09-09T15:04:57;24.68;54.56
72710;SHT30;60827;48.398;-4.498;2022-09-09T15:07:24;24.59;54.22
72710;SHT30;60827;48.398;-4.498;2022-09-09T15:09:49;24.50;54.31
72710;SHT30;60827;48.398;-4.498;2022-09-09T15:12:15;24.40;54.44
72710;SHT30;60827;48.398;-4.498;2022-09-09T15:14:40;24.39;54.73
72710;SHT30;60827;48.398;-4.498;2022-09-09T15:17:05;24.39;54.87
72710;SHT30;60827;48.398;-4.498;2022-09-09T15:19:31;24.39;54.69
72710;SHT30;60827;48.398;-4.498;2022-09-09T15:21:57;24.40;54.96
72710;SHT30;60827;48.398;-4.498;2022-09-09T15:24:25;24.40;55.44
72710;SHT30;60827;48.398;-4.498;2022-09-09T15:26:51;24.35;56.08
72710;SHT30;60827;48.398;-4.498;2022-09-09T15:29:16;24.22;55.96
72710;SHT30;60827;48.398;-4.498;2022-09-09T15:31:44;24.15;56.00
72710;SHT30;60827;48.398;-4.498;2022-09-09T15:34:09;24.06;56.46
72710;SHT30;60827;48.398;-4.498;2022-09-09T15:36:37;24.08;56.61
72710;SHT30;60827;48.398;-4.498;2022-09-09T15:39:06;24.05;56.16
72710;SHT30;60827;48.398;-4.498;2022-09-09T15:41:32;24.02;56.24
72710;SHT30;60827;48.398;-4.498;2022-09-09T15:43:58;24.06;56.61
72710;SHT30;60827;48.398;-4.498;2022-09-09T15:46:35;24.02;56.35
72710;SHT30;60827;48.398;-4.498;2022-09-09T15:51:44;23.77;56.70
72710;SHT30;60827;48.398;-4.498;2022-09-09T15:54:15;23.71;56.97
72710;SHT30;60827;48.398;-4.498;2022-09-09T15:56:42;23.71;57.38
72710;SHT30;60827;48.398;-4.498;2022-09-09T15:59:08;23.53;57.48
72710;SHT30;60827;48.398;-4.498;2022-09-09T16:01:34;23.46;57.68
72710;SHT30;60827;48.398;-4.498;2022-09-09T16:04:00;23.40;57.95
72710;SHT30;60827;48.398;-4.498;2022-09-09T16:06:27;23.26;58.26
72710;SHT30;60827;48.398;-4.498;2022-09-09T16:08:54;23.11;58.57
72710;SHT30;60827;48.398;-4.498;2022-09-09T16:11:26;22.97;59.10
72710;SHT30;60827;48.398;-4.498;2022-09-09T16:13:53;22.87;59.44
72710;SHT30;60827;48.398;-4.498;2022-09-09T16:16:21;22.83;59.60
72710;SHT30;60827;48.398;-4.498;2022-09-09T16:18:52;22.99;59.49
72710;SHT30;60827;48.398;-4.498;2022-09-09T16:21:26;23.84;58.11
72710;SHT30;60827;48.398;-4.498;2022-09-09T16:23:54;23.85;56.56
72710;SHT30;60827;48.398;-4.498;2022-09-09T16:26:20;23.65;56.83
72710;SHT30;60827;48.398;-4.498;2022-09-09T16:28:46;23.51;57.47
72710;SHT30;60827;48.398;-4.498;2022-09-09T16:31:18;23.68;56.89
72710;SHT30;60827;48.398;-4.498;2022-09-09T16:33:44;24.81;55.08
72710;SHT30;60827;48.398;-4.498;2022-09-09T16:36:15;24.90;54.13
72710;SHT30;60827;48.398;-4.498;2022-09-09T16:38:41;24.59;54.96
72710;SHT30;60827;48.398;-4.498;2022-09-09T16:41:09;24.84;54.82
72710;SHT30;60827;48.398;-4.498;2022-09-09T16:43:35;25.17;54.14
72710;SHT30;60827;48.398;-4.498;2022-09-09T16:46:02;25.90;52.52
72710;SHT30;60827;48.398;-4.498;2022-09-09T16:48:32;26.09;52.13
72710;SHT30;60827;48.398;-4.498;2022-09-09T16:51:05;26.23;51.87
72710;SHT30;60827;48.398;-4.498;2022-09-09T16:53:31;26.12;52.17
72710;SHT30;60827;48.398;-4.498;2022-09-09T16:55:57;25.69;53.12
72710;SHT30;60827;48.398;-4.498;2022-09-09T16:58:22;25.55;53.66
72710;SHT30;60827;48.398;-4.498;2022-09-09T17:00:48;25.43;53.82
72710;SHT30;60827;48.398;-4.498;2022-09-09T17:03:14;25.52;53.46
72710;SHT30;60827;48.398;-4.498;2022-09-09T17:05:40;25.39;53.10
72710;SHT30;60827;48.398;-4.498;2022-09-09T17:08:06;25.77;52.74
72710;SHT30;60827;48.398;-4.498;2022-09-09T17:10:31;26.92;50.77
72710;SHT30;60827;48.398;-4.498;2022-09-09T17:12:57;27.70;49.76
72710;SHT30;60827;48.398;-4.498;2022-09-09T17:15:22;27.81;48.58
72710;SHT30;60827;48.398;-4.498;2022-09-09T17:17:49;28.08;47.54
72710;SHT30;60827;48.398;-4.498;2022-09-09T17:20:18;28.04;46.73
72710;SHT30;60827;48.398;-4.498;2022-09-09T17:22:43;27.94;45.74
72710;SHT30;60827;48.398;-4.498;2022-09-09T17:25:10;27.86;46.36
72710;SHT30;60827;48.398;-4.498;2022-09-09T17:27:36;28.05;45.61